Spickard, Missouri
Current Conditions -  °F | °C
As of 10:53 AM on Sunday 21 Dec 2014 (Local Time) from KLWD Reporting Station
Overcast Overcast  
Wind Chill: 28°   Ceiling: 800
Heat Index: 38°   Visibility: 7mi
Dew Point: 36°   Wind: 18mph
Humidity: 93%   Direction: 190°S
Pressure: 29.95"   Gusts: 26mph
Location:  40.24°N, 93.59°W
Report Text: KLWD 211653Z AUTO 19016G23KT 7SM OVC008 03/02 A2995 RMK AO2 CIG 007V012 SLP152 T00330022
Loading
Personal Weather Stations






























Interactive Weather Map New forecast layout! Learn more

10-Day Weather Forecast

Advertisements
Track Severe Weather on mobile